Monday, November 20, 2017, 4:34 AM EST
Back to Local

KEWN, New Bern, Craven County Regional Airport

Location: New Bern, NC, United States Lat: 35.068
Local Time: 4:34 AM EST ( 9:34 GMT) Lon: -77.047
Time Zone: US/Eastern Elev: 16 ft

Show me the last for .
Show Coded

Time T Td Feel RH Dir Speed Gust Alt SLP Vis Weather Sky Remarks
2017-11-20 03:54 35 29 32 78 320° 3 - 30.15 30.15 10 CLR None
2017-11-20 02:54 37 30 - 75 - Calm - 30.14 30.13 10 CLR None
2017-11-20 01:54 38 30 34 72 290° 5 - 30.11 30.11 10 CLR None
2017-11-20 00:54 39 29 37 66 320° 3 - 30.10 30.09 10 CLR 6-hr Min Temp (1am): 39.0°F
6-hr Max Temp (1am): 50.0°F
2017-11-19 23:54 41 29 37 61 320° 6 - 30.08 30.08 10 CLR 24-hr Min Temp (12am): 41.0°F
24-hr Max Temp (12am): 68.0°F
2017-11-19 22:54 44 29 39 55 330° 9 - 30.06 30.06 10 CLR None
2017-11-19 21:54 47 29 40 49 320° 12 18 30.04 30.03 10 CLR None
2017-11-19 20:54 48 31 44 51 330° 8 - 30.00 29.99 10 CLR None
2017-11-19 19:54 45 34 42 65 320° 6 - 29.96 29.96 10 CLR None
2017-11-19 18:54 50 34 49 53 280° 3 - 29.92 29.91 10 CLR 6-hr Min Temp (7pm): 50.0°F
6-hr Max Temp (7pm): 62.1°F
2017-11-19 17:54 53 32 - 44 310° 9 - 29.88 29.88 10 CLR None
2017-11-19 16:54 55 35 - 46 300° 8 - 29.84 29.83 10 CLR None
2017-11-19 15:54 59 36 - 42 310° 15 20 29.80 29.80 10 CLR None
2017-11-19 14:54 61 36 - 39 320° 12 22 29.76 29.76 10 CLR None
2017-11-19 13:54 61 37 - 40 320° 17 24 29.75 29.75 10 CLR None
2017-11-19 12:54 61 39 - 44 320° 14 24 29.75 29.75 10 CLR 6-hr Precip Total (1pm): 0.00"
6-hr Min Temp (1pm): 57.9°F
6-hr Max Temp (1pm): 63.0°F
2017-11-19 11:54 60 41 - 49 320° 20 26 29.77 29.77 10 CLR None
2017-11-19 10:54 59 42 - 53 310° 15 24 29.78 29.77 10 CLR None
2017-11-19 09:54 59 48 - 66 300° 13 - 29.76 29.76 10 FEW036 SCT055 BKN070 6-hr Precip Total (10am): 0.00"
2017-11-19 08:54 59 56 - 89 290° 9 - 29.73 29.72 10 OVC047 Peak wind: 35 mph (31 kts) from 290° at 08 min
Wind Shift: 00 min
1-hr Precip Total: Trace
2017-11-19 08:20 60 57 - 89 290° 10 23 29.72 - 7 -RA SCT032 OVC040 Peak wind: 35 mph (31 kts) from 290° at 08 min
Wind Shift: 00 min
Pressure rising rapidly
1-hr Precip Total: Trace
2017-11-19 07:54 63 60 - 90 230° 10 18 29.67 29.67 10 SCT044 BKN055 OVC120 1-hr Precip Total: Trace
2017-11-19 06:54 62 60 - 93 230° 12 - 29.65 29.65 6 -RA BR OVC070 Peak wind: 31 mph (27 kts) from 220° at 08 min
1-hr Precip Total: 0.03"
6-hr Precip Total (7am): 0.03"
24-hr Precip Total (7am): 0.03"
6-hr Min Temp (7am): 62.1°F
6-hr Max Temp (7am): 68.0°F
2017-11-19 05:54 67 57 - 70 230° 17 32 29.62 29.62 10 BKN036 OVC065 Peak wind: 32 mph (28 kts) from 200° at 49 min
2017-11-19 04:54 66 57 - 72 210° 16 28 29.61 29.61 10 SCT045 BKN060 OVC080 Peak wind: 31 mph (27 kts) from 210° at 01 min

Support USWX by starting your Amazon purchase here.